Rapid City, SD (57702)

12:56 AM MDT on March 23, 2017 (GMT -0600)
Cedar Drive | | Change Station

Elev 3465 ft 44.07 °N, 103.29 °W | Updated 7 seconds ago

Mostly Cloudy
Mostly Cloudy
45.0 °F
Feels Like 45 °F
N
0.0
Wind Variable Wind from SSE
Gusts 0.0 mph

Today
High -- | Low -- °F
--% Chance of Precip.
Yesterday
High -- | Low -- °F
Precip. -- in
Pressure 29.73 in
Visibility 10.0 miles
Clouds Clear
Windchill 45 °F
Dew Point 40 °F
Humidity 84%
Rainfall 0.00 in
Snow Depth Not available.
6:50 AM 7:09 PM
Waning Crescent, 26% visible
METAR KRCA 230558Z AUTO 19008KT 10SM CLR 11/05 A2973 RMK AO2 SLP066 T01050045 10156 20060 57013 CHINO RWY13 $
Pressure 29.73 in
Visibility 10.0 miles
Clouds Clear
Windchill 45 °F
Dew Point 40 °F
Humidity 84%
Rainfall 0.00 in
Snow Depth Not available.
6:50 AM 7:09 PM
Waning Crescent, 26% visible
METAR KRCA 230558Z AUTO 19008KT 10SM CLR 11/05 A2973 RMK AO2 SLP066 T01050045 10156 20060 57013 CHINO RWY13 $

Get Severe Weather Alerts

Thanks for signing up!

Be on the lookout for a verification email in your inbox.

You'll start receiving the daily forecast at 8 AM.

×

10-Day Weather Forecast

Almanac

Astronomy

Mar. 23, 2017 Rise Set
Actual Time
Civil Twilight
Nautical Twilight
Astronomical Twilight
Moon
Length of Visible Light
Length of Day
Tomorrow will be .
, % of the Moon is Illuminated

Today's Extremes

State Highs State Lows

Community

WunderPhotos

Upload Photos

1,962,540 photos uploaded!

WunderBlog® & News

Nearby

Air Quality

  Air Quality AQ Index Pollutant
Not available.

Snow Depth

Station Depth Elevation

Earthquake Activity

City Distance Mag. Time & Date
Minimum magnitude displayed is 2.5.

Earthquake Activity

City Distance Mag. Time & Date
Minimum magnitude displayed is 2.5.

Coastal Water Temperatures

Place Temperature

Stations

Nearby Weather Stations

Station Location Temp. Windchill Dew Point Humidity Wind Precip. Elev Updated Type
                   

Watches & Warnings

There are currently no watches in effect.